sensor_id;sensor_type;location;lat;lon;timestamp;pressure;altitude;pressure_sealevel;temperature;humidity
28701;BME280;15877;52.344;16.790;2023-03-18T00:01:04;100544.04;;;8.19;49.84
28701;BME280;15877;52.344;16.790;2023-03-18T00:03:38;100548.22;;;8.18;49.94
28701;BME280;15877;52.344;16.790;2023-03-18T00:06:13;100538.43;;;8.10;49.68
28701;BME280;15877;52.344;16.790;2023-03-18T00:08:48;100551.20;;;8.22;49.63
28701;BME280;15877;52.344;16.790;2023-03-18T00:11:21;100549.95;;;8.25;49.47
28701;BME280;15877;52.344;16.790;2023-03-18T00:13:54;100545.64;;;8.22;49.62
28701;BME280;15877;52.344;16.790;2023-03-18T00:16:28;100540.54;;;8.21;49.61
28701;BME280;15877;52.344;16.790;2023-03-18T00:19:00;100540.31;;;8.18;49.85
28701;BME280;15877;52.344;16.790;2023-03-18T00:21:34;100540.34;;;8.20;49.85
28701;BME280;15877;52.344;16.790;2023-03-18T00:24:08;100542.73;;;8.17;49.79
28701;BME280;15877;52.344;16.790;2023-03-18T00:26:40;100527.55;;;8.01;49.85
28701;BME280;15877;52.344;16.790;2023-03-18T00:29:12;100534.67;;;8.11;49.98
28701;BME280;15877;52.344;16.790;2023-03-18T00:31:46;100534.45;;;8.08;50.22
28701;BME280;15877;52.344;16.790;2023-03-18T00:34:20;100530.95;;;8.10;49.94
28701;BME280;15877;52.344;16.790;2023-03-18T00:36:54;100529.17;;;8.07;50.15
28701;BME280;15877;52.344;16.790;2023-03-18T00:39:27;100522.10;;;8.08;49.95
28701;BME280;15877;52.344;16.790;2023-03-18T00:42:03;100522.13;;;8.07;50.16
28701;BME280;15877;52.344;16.790;2023-03-18T00:44:40;100524.19;;;8.02;50.22
28701;BME280;15877;52.344;16.790;2023-03-18T00:47:15;100509.14;;;7.97;50.14
28701;BME280;15877;52.344;16.790;2023-03-18T00:49:49;100517.02;;;8.08;50.08
28701;BME280;15877;52.344;16.790;2023-03-18T00:52:23;100515.53;;;8.06;50.12
28701;BME280;15877;52.344;16.790;2023-03-18T00:54:57;100515.80;;;8.04;50.37
28701;BME280;15877;52.344;16.790;2023-03-18T00:57:31;100511.48;;;7.98;50.63
28701;BME280;15877;52.344;16.790;2023-03-18T01:00:07;100511.81;;;7.94;50.62
28701;BME280;15877;52.344;16.790;2023-03-18T01:02:41;100509.89;;;7.84;50.84
28701;BME280;15877;52.344;16.790;2023-03-18T01:05:15;100506.39;;;7.83;50.71
28701;BME280;15877;52.344;16.790;2023-03-18T01:07:48;100501.95;;;7.87;50.61
28701;BME280;15877;52.344;16.790;2023-03-18T01:10:23;100502.35;;;7.90;50.54
28701;BME280;15877;52.344;16.790;2023-03-18T01:12:55;100499.60;;;7.81;50.71
28701;BME280;15877;52.344;16.790;2023-03-18T01:15:28;100498.82;;;7.81;50.83
28701;BME280;15877;52.344;16.790;2023-03-18T01:18:01;100496.62;;;7.75;50.91
28701;BME280;15877;52.344;16.790;2023-03-18T01:20:35;100477.21;;;7.61;50.90
28701;BME280;15877;52.344;16.790;2023-03-18T01:23:08;100476.93;;;7.65;50.82
28701;BME280;15877;52.344;16.790;2023-03-18T01:25:41;100489.69;;;7.68;50.89
28701;BME280;15877;52.344;16.790;2023-03-18T01:28:16;100497.14;;;7.72;50.74
28701;BME280;15877;52.344;16.790;2023-03-18T01:30:51;100494.57;;;7.75;50.68
28701;BME280;15877;52.344;16.790;2023-03-18T01:33:25;100490.36;;;7.74;50.80
28701;BME280;15877;52.344;16.790;2023-03-18T01:36:01;100489.96;;;7.72;50.62
28701;BME280;15877;52.344;16.790;2023-03-18T01:38:36;100491.23;;;7.73;50.80
28701;BME280;15877;52.344;16.790;2023-03-18T01:41:12;100495.82;;;7.77;50.63
28701;BME280;15877;52.344;16.790;2023-03-18T01:43:46;100493.13;;;7.68;50.84
28701;BME280;15877;52.344;16.790;2023-03-18T01:46:36;100493.84;;;7.65;50.80
28701;BME280;15877;52.344;16.790;2023-03-18T01:49:13;100491.09;;;7.66;50.60
28701;BME280;15877;52.344;16.790;2023-03-18T01:51:51;100484.55;;;7.71;50.55
28701;BME280;15877;52.344;16.790;2023-03-18T01:54:29;100482.08;;;7.65;50.73
28701;BME280;15877;52.344;16.790;2023-03-18T01:57:04;100491.92;;;7.71;50.58
28701;BME280;15877;52.344;16.790;2023-03-18T01:59:40;100496.89;;;7.69;50.62
28701;BME280;15877;52.344;16.790;2023-03-18T02:02:14;100485.01;;;7.61;50.66
28701;BME280;15877;52.344;16.790;2023-03-18T02:04:51;100497.75;;;7.68;50.44
28701;BME280;15877;52.344;16.790;2023-03-18T02:07:29;100495.46;;;7.62;50.51
28701;BME280;15877;52.344;16.790;2023-03-18T02:10:05;100495.98;;;7.65;50.49
28701;BME280;15877;52.344;16.790;2023-03-18T02:12:44;100498.50;;;7.56;50.64
28701;BME280;15877;52.344;16.790;2023-03-18T02:15:24;100497.20;;;7.62;50.47
28701;BME280;15877;52.344;16.790;2023-03-18T02:18:01;100493.36;;;7.62;50.62
28701;BME280;15877;52.344;16.790;2023-03-18T02:20:47;100498.45;;;7.59;50.44
28701;BME280;15877;52.344;16.790;2023-03-18T02:23:30;100494.91;;;7.57;50.72
28701;BME280;15877;52.344;16.790;2023-03-18T02:26:17;100483.86;;;7.51;50.47
28701;BME280;15877;52.344;16.790;2023-03-18T02:28:55;100474.77;;;7.50;50.27
28701;BME280;15877;52.344;16.790;2023-03-18T02:31:30;100483.34;;;7.47;50.51
28701;BME280;15877;52.344;16.790;2023-03-18T02:34:06;100488.10;;;7.40;50.72
28701;BME280;15877;52.344;16.790;2023-03-18T02:36:42;100484.38;;;7.45;50.69
28701;BME280;15877;52.344;16.790;2023-03-18T02:39:16;100464.17;;;7.43;50.16
28701;BME280;15877;52.344;16.790;2023-03-18T02:41:49;100472.07;;;7.55;50.41
28701;BME280;15877;52.344;16.790;2023-03-18T02:44:26;100473.54;;;7.52;50.27
28701;BME280;15877;52.344;16.790;2023-03-18T02:47:21;100465.43;;;7.41;50.48
28701;BME280;15877;52.344;16.790;2023-03-18T02:49:56;100472.52;;;7.29;50.69
28701;BME280;15877;52.344;16.790;2023-03-18T02:52:30;100479.58;;;7.37;50.57
28701;BME280;15877;52.344;16.790;2023-03-18T02:55:09;100478.98;;;7.37;50.48
28701;BME280;15877;52.344;16.790;2023-03-18T02:57:43;100481.98;;;7.36;50.45
28701;BME280;15877;52.344;16.790;2023-03-18T03:00:16;100484.77;;;7.36;50.31
28701;BME280;15877;52.344;16.790;2023-03-18T03:02:49;100489.78;;;7.28;50.54
28701;BME280;15877;52.344;16.790;2023-03-18T03:05:24;100488.23;;;7.18;50.80
28701;BME280;15877;52.344;16.790;2023-03-18T03:07:59;100484.95;;;7.26;50.51
28701;BME280;15877;52.344;16.790;2023-03-18T03:10:36;100468.08;;;7.24;50.45
28701;BME280;15877;52.344;16.790;2023-03-18T03:13:08;100482.07;;;7.33;50.62
28701;BME280;15877;52.344;16.790;2023-03-18T03:15:42;100487.17;;;7.39;50.36
28701;BME280;15877;52.344;16.790;2023-03-18T03:18:15;100489.71;;;7.41;50.40
28701;BME280;15877;52.344;16.790;2023-03-18T03:20:48;100487.25;;;7.46;50.57
28701;BME280;15877;52.344;16.790;2023-03-18T03:23:23;100496.41;;;7.48;50.55
28701;BME280;15877;52.344;16.790;2023-03-18T03:25:57;100502.00;;;7.53;50.37
28701;BME280;15877;52.344;16.790;2023-03-18T03:28:31;100503.15;;;7.58;49.97
28701;BME280;15877;52.344;16.790;2023-03-18T03:31:06;100506.08;;;7.54;50.03
28701;BME280;15877;52.344;16.790;2023-03-18T03:33:40;100510.86;;;7.53;50.10
28701;BME280;15877;52.344;16.790;2023-03-18T03:36:15;100506.38;;;7.51;50.09
28701;BME280;15877;52.344;16.790;2023-03-18T03:38:48;100510.48;;;7.46;50.04
28701;BME280;15877;52.344;16.790;2023-03-18T03:41:21;100498.75;;;7.48;50.00
28701;BME280;15877;52.344;16.790;2023-03-18T03:43:54;100509.09;;;7.57;49.71
28701;BME280;15877;52.344;16.790;2023-03-18T03:46:26;100501.96;;;7.47;49.81
28701;BME280;15877;52.344;16.790;2023-03-18T03:49:00;100515.29;;;7.49;49.80
28701;BME280;15877;52.344;16.790;2023-03-18T03:51:33;100505.56;;;7.55;49.70
28701;BME280;15877;52.344;16.790;2023-03-18T03:54:06;100511.54;;;7.52;49.79
28701;BME280;15877;52.344;16.790;2023-03-18T03:56:41;100504.16;;;7.53;49.78
28701;BME280;15877;52.344;16.790;2023-03-18T03:59:14;100502.55;;;7.52;49.82
28701;BME280;15877;52.344;16.790;2023-03-18T04:02:10;100504.79;;;7.55;49.89
28701;BME280;15877;52.344;16.790;2023-03-18T04:04:44;100504.31;;;7.60;49.82
28701;BME280;15877;52.344;16.790;2023-03-18T04:07:25;100507.99;;;7.63;50.09
28701;BME280;15877;52.344;16.790;2023-03-18T04:09:58;100510.46;;;7.62;49.82
28701;BME280;15877;52.344;16.790;2023-03-18T04:12:33;100510.30;;;7.57;49.69
28701;BME280;15877;52.344;16.790;2023-03-18T04:15:09;100509.70;;;7.58;49.59
28701;BME280;15877;52.344;16.790;2023-03-18T04:17:42;100506.60;;;7.67;49.63
28701;BME280;15877;52.344;16.790;2023-03-18T04:20:19;100506.77;;;7.71;49.53
28701;BME280;15877;52.344;16.790;2023-03-18T04:22:53;100505.13;;;7.72;49.56
28701;BME280;15877;52.344;16.790;2023-03-18T04:25:27;100505.05;;;7.58;49.96
28701;BME280;15877;52.344;16.790;2023-03-18T04:28:01;100501.33;;;7.67;49.60
28701;BME280;15877;52.344;16.790;2023-03-18T04:30:33;100503.20;;;7.57;49.78
28701;BME280;15877;52.344;16.790;2023-03-18T04:33:10;100507.44;;;7.50;49.95
28701;BME280;15877;52.344;16.790;2023-03-18T04:35:45;100507.05;;;7.57;49.95
28701;BME280;15877;52.344;16.790;2023-03-18T04:38:19;100501.32;;;7.62;50.00
28701;BME280;15877;52.344;16.790;2023-03-18T04:40:53;100486.05;;;7.59;49.83
28701;BME280;15877;52.344;16.790;2023-03-18T04:43:26;100502.52;;;7.68;49.55
28701;BME280;15877;52.344;16.790;2023-03-18T04:45:59;100493.44;;;7.72;49.49
28701;BME280;15877;52.344;16.790;2023-03-18T04:48:32;100497.27;;;7.70;49.51
28701;BME280;15877;52.344;16.790;2023-03-18T04:51:07;100500.34;;;7.70;49.52
28701;BME280;15877;52.344;16.790;2023-03-18T04:53:41;100498.67;;;7.72;49.53
28701;BME280;15877;52.344;16.790;2023-03-18T04:56:14;100502.20;;;7.76;49.47
28701;BME280;15877;52.344;16.790;2023-03-18T04:58:51;100499.59;;;7.74;49.18
28701;BME280;15877;52.344;16.790;2023-03-18T05:01:29;100498.09;;;7.76;48.97
28701;BME280;15877;52.344;16.790;2023-03-18T05:04:02;100487.59;;;7.60;48.94
28701;BME280;15877;52.344;16.790;2023-03-18T05:06:43;100503.70;;;7.65;49.21
28701;BME280;15877;52.344;16.790;2023-03-18T05:09:19;100507.41;;;7.62;49.26
28701;BME280;15877;52.344;16.790;2023-03-18T05:11:53;100504.97;;;7.67;49.17
28701;BME280;15877;52.344;16.790;2023-03-18T05:14:39;100499.51;;;7.76;49.02
28701;BME280;15877;52.344;16.790;2023-03-18T05:17:17;100501.05;;;7.75;48.92
28701;BME280;15877;52.344;16.790;2023-03-18T05:19:57;100500.16;;;7.68;49.14
28701;BME280;15877;52.344;16.790;2023-03-18T05:22:31;100508.04;;;7.67;49.29
28701;BME280;15877;52.344;16.790;2023-03-18T05:25:13;100502.78;;;7.59;49.15
28701;BME280;15877;52.344;16.790;2023-03-18T05:27:47;100501.90;;;7.42;49.44
28701;BME280;15877;52.344;16.790;2023-03-18T05:30:28;100497.18;;;7.55;49.34
28701;BME280;15877;52.344;16.790;2023-03-18T05:33:04;100490.52;;;7.56;49.23
28701;BME280;15877;52.344;16.790;2023-03-18T05:35:46;100470.76;;;7.47;49.36
28701;BME280;15877;52.344;16.790;2023-03-18T05:38:20;100476.41;;;7.54;49.51
28701;BME280;15877;52.344;16.790;2023-03-18T05:40:55;100481.48;;;7.59;49.38
28701;BME280;15877;52.344;16.790;2023-03-18T05:43:37;100483.94;;;7.55;49.31
28701;BME280;15877;52.344;16.790;2023-03-18T05:46:11;100487.85;;;7.54;49.55
28701;BME280;15877;52.344;16.790;2023-03-18T05:48:59;100483.02;;;7.54;49.64
28701;BME280;15877;52.344;16.790;2023-03-18T05:51:38;100483.16;;;7.54;49.68
28701;BME280;15877;52.344;16.790;2023-03-18T05:54:12;100486.10;;;7.44;49.78
28701;BME280;15877;52.344;16.790;2023-03-18T05:56:48;100493.19;;;7.44;49.94
28701;BME280;15877;52.344;16.790;2023-03-18T05:59:24;100488.95;;;7.50;49.69
28701;BME280;15877;52.344;16.790;2023-03-18T06:02:01;100493.89;;;7.51;49.76
28701;BME280;15877;52.344;16.790;2023-03-18T06:04:33;100497.64;;;7.47;49.75
28701;BME280;15877;52.344;16.790;2023-03-18T06:07:08;100494.67;;;7.55;49.71
28701;BME280;15877;52.344;16.790;2023-03-18T06:09:44;100481.70;;;7.57;49.40
28701;BME280;15877;52.344;16.790;2023-03-18T06:12:17;100494.92;;;7.65;49.43
28701;BME280;15877;52.344;16.790;2023-03-18T06:14:53;100494.35;;;7.64;49.24
28701;BME280;15877;52.344;16.790;2023-03-18T06:17:27;100495.30;;;7.69;49.29
28701;BME280;15877;52.344;16.790;2023-03-18T06:20:00;100493.57;;;7.71;49.46
28701;BME280;15877;52.344;16.790;2023-03-18T06:22:34;100490.52;;;7.68;49.34
28701;BME280;15877;52.344;16.790;2023-03-18T06:25:11;100496.48;;;7.59;49.31
28701;BME280;15877;52.344;16.790;2023-03-18T06:27:44;100498.23;;;7.66;49.27
28701;BME280;15877;52.344;16.790;2023-03-18T06:30:19;100504.60;;;7.63;49.19
28701;BME280;15877;52.344;16.790;2023-03-18T06:32:52;100507.66;;;7.72;49.12
28701;BME280;15877;52.344;16.790;2023-03-18T06:35:29;100512.35;;;7.80;49.18
28701;BME280;15877;52.344;16.790;2023-03-18T06:38:05;100511.13;;;7.83;49.14
28701;BME280;15877;52.344;16.790;2023-03-18T06:40:40;100510.35;;;7.88;49.07
28701;BME280;15877;52.344;16.790;2023-03-18T06:43:14;100512.27;;;7.91;49.23
28701;BME280;15877;52.344;16.790;2023-03-18T06:45:48;100515.15;;;7.92;48.84
28701;BME280;15877;52.344;16.790;2023-03-18T06:48:26;100515.55;;;7.99;48.48
28701;BME280;15877;52.344;16.790;2023-03-18T06:51:00;100509.33;;;8.07;48.49
28701;BME280;15877;52.344;16.790;2023-03-18T06:53:38;100502.90;;;8.01;48.37
28701;BME280;15877;52.344;16.790;2023-03-18T06:56:12;100508.32;;;8.15;48.20
28701;BME280;15877;52.344;16.790;2023-03-18T06:58:53;100506.70;;;8.02;48.06
28701;BME280;15877;52.344;16.790;2023-03-18T07:01:27;100511.23;;;8.14;48.26
28701;BME280;15877;52.344;16.790;2023-03-18T07:04:03;100497.64;;;8.03;48.22
28701;BME280;15877;52.344;16.790;2023-03-18T07:06:37;100512.63;;;8.23;48.27
28701;BME280;15877;52.344;16.790;2023-03-18T07:09:10;100508.52;;;8.37;48.14
28701;BME280;15877;52.344;16.790;2023-03-18T07:11:46;100513.29;;;8.52;47.86
28701;BME280;15877;52.344;16.790;2023-03-18T07:14:22;100518.05;;;8.53;47.69
28701;BME280;15877;52.344;16.790;2023-03-18T07:16:57;100520.15;;;8.57;47.21
28701;BME280;15877;52.344;16.790;2023-03-18T07:19:31;100519.22;;;8.57;47.00
28701;BME280;15877;52.344;16.790;2023-03-18T07:22:08;100515.20;;;8.55;47.37
28701;BME280;15877;52.344;16.790;2023-03-18T07:24:42;100518.10;;;8.57;47.02
28701;BME280;15877;52.344;16.790;2023-03-18T07:27:17;100521.80;;;8.67;47.17
28701;BME280;15877;52.344;16.790;2023-03-18T07:29:50;100518.64;;;8.62;46.84
28701;BME280;15877;52.344;16.790;2023-03-18T07:32:23;100518.26;;;8.73;47.15
28701;BME280;15877;52.344;16.790;2023-03-18T07:34:55;100516.45;;;8.76;47.03
28701;BME280;15877;52.344;16.790;2023-03-18T07:37:30;100517.37;;;8.77;46.97
28701;BME280;15877;52.344;16.790;2023-03-18T07:40:03;100521.39;;;8.87;46.48
28701;BME280;15877;52.344;16.790;2023-03-18T07:42:37;100522.74;;;8.92;46.62
28701;BME280;15877;52.344;16.790;2023-03-18T07:45:11;100520.03;;;9.00;46.49
28701;BME280;15877;52.344;16.790;2023-03-18T07:58:09;100521.36;;;9.43;46.23
28701;BME280;15877;52.344;16.790;2023-03-18T08:00:44;100532.52;;;9.48;46.56
28701;BME280;15877;52.344;16.790;2023-03-18T08:03:18;100534.71;;;9.58;46.11
28701;BME280;15877;52.344;16.790;2023-03-18T08:05:52;100537.43;;;9.65;46.00
28701;BME280;15877;52.344;16.790;2023-03-18T08:08:25;100544.27;;;9.57;45.74
28701;BME280;15877;52.344;16.790;2023-03-18T08:11:01;100538.54;;;9.59;45.65
28701;BME280;15877;52.344;16.790;2023-03-18T08:13:33;100537.63;;;9.69;45.74
28701;BME280;15877;52.344;16.790;2023-03-18T08:16:07;100540.27;;;9.76;46.24
28701;BME280;15877;52.344;16.790;2023-03-18T08:18:42;100546.05;;;9.91;46.15
28701;BME280;15877;52.344;16.790;2023-03-18T08:21:15;100541.45;;;10.00;46.24
28701;BME280;15877;52.344;16.790;2023-03-18T08:23:48;100540.70;;;10.06;46.09
28701;BME280;15877;52.344;16.790;2023-03-18T08:26:21;100542.34;;;10.07;46.15
28701;BME280;15877;52.344;16.790;2023-03-18T08:28:54;100542.89;;;10.06;45.74
28701;BME280;15877;52.344;16.790;2023-03-18T08:31:28;100539.96;;;10.09;45.73
28701;BME280;15877;52.344;16.790;2023-03-18T08:34:02;100540.90;;;10.18;45.89
28701;BME280;15877;52.344;16.790;2023-03-18T08:36:36;100529.73;;;10.15;45.77
28701;BME280;15877;52.344;16.790;2023-03-18T08:39:10;100543.29;;;10.21;46.19
28701;BME280;15877;52.344;16.790;2023-03-18T08:41:42;100540.73;;;10.30;46.01
28701;BME280;15877;52.344;16.790;2023-03-18T08:44:15;100542.98;;;10.41;45.70
28701;BME280;15877;52.344;16.790;2023-03-18T08:46:48;100537.80;;;10.46;45.55
28701;BME280;15877;52.344;16.790;2023-03-18T08:49:21;100538.88;;;10.55;45.26
28701;BME280;15877;52.344;16.790;2023-03-18T08:51:54;100540.56;;;10.56;45.20
28701;BME280;15877;52.344;16.790;2023-03-18T08:54:27;100538.23;;;10.68;45.23
28701;BME280;15877;52.344;16.790;2023-03-18T08:57:00;100542.39;;;10.69;44.88
28701;BME280;15877;52.344;16.790;2023-03-18T08:59:32;100542.39;;;10.70;45.07
28701;BME280;15877;52.344;16.790;2023-03-18T09:02:09;100549.03;;;10.82;44.97
28701;BME280;15877;52.344;16.790;2023-03-18T09:04:45;100544.90;;;10.96;44.95
28701;BME280;15877;52.344;16.790;2023-03-18T09:07:18;100547.70;;;11.11;45.00
28701;BME280;15877;52.344;16.790;2023-03-18T09:09:51;100536.40;;;11.11;44.84
28701;BME280;15877;52.344;16.790;2023-03-18T09:12:25;100542.94;;;11.27;44.47
28701;BME280;15877;52.344;16.790;2023-03-18T09:14:59;100541.50;;;11.34;44.59
28701;BME280;15877;52.344;16.790;2023-03-18T09:17:33;100541.27;;;11.42;44.14
28701;BME280;15877;52.344;16.790;2023-03-18T09:20:26;100544.01;;;11.36;43.96
28701;BME280;15877;52.344;16.790;2023-03-18T09:22:59;100538.20;;;11.43;44.20
28701;BME280;15877;52.344;16.790;2023-03-18T09:25:33;100536.89;;;11.38;43.77
28701;BME280;15877;52.344;16.790;2023-03-18T09:28:06;100526.38;;;11.36;44.69
28701;BME280;15877;52.344;16.790;2023-03-18T09:30:39;100540.55;;;11.49;44.36
28701;BME280;15877;52.344;16.790;2023-03-18T09:33:12;100543.73;;;11.42;44.12
28701;BME280;15877;52.344;16.790;2023-03-18T09:35:44;100541.37;;;11.39;44.26
28701;BME280;15877;52.344;16.790;2023-03-18T09:38:18;100543.38;;;11.60;44.70
28701;BME280;15877;52.344;16.790;2023-03-18T09:41:01;100541.45;;;11.78;44.65
28701;BME280;15877;52.344;16.790;2023-03-18T09:43:53;100541.20;;;11.90;44.15
28701;BME280;15877;52.344;16.790;2023-03-18T09:46:34;100539.51;;;12.02;44.28
28701;BME280;15877;52.344;16.790;2023-03-18T09:49:22;100538.10;;;12.07;43.79
28701;BME280;15877;52.344;16.790;2023-03-18T09:52:07;100538.30;;;12.10;43.54
28701;BME280;15877;52.344;16.790;2023-03-18T09:54:50;100534.73;;;12.21;43.70
28701;BME280;15877;52.344;16.790;2023-03-18T09:57:27;100514.31;;;12.22;43.34
28701;BME280;15877;52.344;16.790;2023-03-18T10:00:05;100537.05;;;12.31;43.61
28701;BME280;15877;52.344;16.790;2023-03-18T10:02:45;100536.91;;;12.27;43.61
28701;BME280;15877;52.344;16.790;2023-03-18T10:05:22;100535.17;;;12.37;43.61
28701;BME280;15877;52.344;16.790;2023-03-18T10:08:01;100532.09;;;12.43;43.59
28701;BME280;15877;52.344;16.790;2023-03-18T10:10:39;100532.40;;;12.53;43.72
28701;BME280;15877;52.344;16.790;2023-03-18T10:13:20;100531.64;;;12.55;43.27
28701;BME280;15877;52.344;16.790;2023-03-18T10:15:55;100531.39;;;12.45;43.12
28701;BME280;15877;52.344;16.790;2023-03-18T10:18:32;100532.86;;;12.42;42.99
28701;BME280;15877;52.344;16.790;2023-03-18T10:21:16;100520.74;;;12.46;43.25
28701;BME280;15877;52.344;16.790;2023-03-18T10:23:57;100518.79;;;12.59;43.55
28701;BME280;15877;52.344;16.790;2023-03-18T10:26:42;100522.04;;;12.63;43.80
28701;BME280;15877;52.344;16.790;2023-03-18T10:29:35;100515.45;;;12.75;43.78
28701;BME280;15877;52.344;16.790;2023-03-18T10:32:19;100512.70;;;12.88;42.97
28701;BME280;15877;52.344;16.790;2023-03-18T10:35:05;100514.43;;;12.93;42.97
28701;BME280;15877;52.344;16.790;2023-03-18T10:37:50;100510.73;;;12.97;43.02
28701;BME280;15877;52.344;16.790;2023-03-18T10:40:28;100506.75;;;13.05;42.84
28701;BME280;15877;52.344;16.790;2023-03-18T10:43:05;100507.33;;;13.14;43.07
28701;BME280;15877;52.344;16.790;2023-03-18T10:45:48;100505.50;;;13.21;42.53
28701;BME280;15877;52.344;16.790;2023-03-18T10:48:28;100507.10;;;13.28;42.58
28701;BME280;15877;52.344;16.790;2023-03-18T10:51:09;100502.74;;;13.30;42.56
28701;BME280;15877;52.344;16.790;2023-03-18T10:53:47;100505.34;;;13.33;42.39
28701;BME280;15877;52.344;16.790;2023-03-18T10:56:25;100507.79;;;13.37;42.04
28701;BME280;15877;52.344;16.790;2023-03-18T10:58:57;100504.42;;;13.43;41.83
28701;BME280;15877;52.344;16.790;2023-03-18T11:01:30;100488.06;;;13.42;42.13
28701;BME280;15877;52.344;16.790;2023-03-18T11:04:05;100500.44;;;13.58;41.69
28701;BME280;15877;52.344;16.790;2023-03-18T11:06:46;100499.63;;;13.56;42.05
28701;BME280;15877;52.344;16.790;2023-03-18T11:09:23;100496.93;;;13.66;42.09
28701;BME280;15877;52.344;16.790;2023-03-18T11:12:03;100500.81;;;13.71;42.15
28701;BME280;15877;52.344;16.790;2023-03-18T11:14:37;100502.95;;;13.85;42.12
28701;BME280;15877;52.344;16.790;2023-03-18T11:17:20;100504.61;;;14.00;41.83
28701;BME280;15877;52.344;16.790;2023-03-18T11:20:03;100507.14;;;14.15;41.68
28701;BME280;15877;52.344;16.790;2023-03-18T11:22:46;100502.93;;;14.34;41.36
28701;BME280;15877;52.344;16.790;2023-03-18T11:25:23;100505.80;;;14.52;41.79
28701;BME280;15877;52.344;16.790;2023-03-18T11:27:57;100506.88;;;14.59;41.35
28701;BME280;15877;52.344;16.790;2023-03-18T11:30:34;100507.03;;;14.57;40.74
28701;BME280;15877;52.344;16.790;2023-03-18T11:33:14;100510.39;;;14.68;41.13
28701;BME280;15877;52.344;16.790;2023-03-18T11:35:53;100509.45;;;14.75;41.42
28701;BME280;15877;52.344;16.790;2023-03-18T11:38:29;100513.10;;;14.80;40.81
28701;BME280;15877;52.344;16.790;2023-03-18T11:41:15;100512.66;;;14.89;40.40
28701;BME280;15877;52.344;16.790;2023-03-18T11:43:57;100508.92;;;14.91;39.93
28701;BME280;15877;52.344;16.790;2023-03-18T11:46:36;100509.30;;;15.04;40.58
28701;BME280;15877;52.344;16.790;2023-03-18T11:49:14;100497.61;;;15.15;39.79
28701;BME280;15877;52.344;16.790;2023-03-18T11:51:53;100508.06;;;15.44;39.97
28701;BME280;15877;52.344;16.790;2023-03-18T11:54:58;100507.48;;;15.57;39.73
28701;BME280;15877;52.344;16.790;2023-03-18T11:57:44;100483.09;;;15.66;39.63
28701;BME280;15877;52.344;16.790;2023-03-18T12:00:30;100495.94;;;15.87;38.76
28701;BME280;15877;52.344;16.790;2023-03-18T12:03:24;100502.13;;;15.97;38.43
28701;BME280;15877;52.344;16.790;2023-03-18T12:06:10;100506.05;;;16.00;38.99
28701;BME280;15877;52.344;16.790;2023-03-18T12:08:53;100505.64;;;15.98;38.89
28701;BME280;15877;52.344;16.790;2023-03-18T12:11:45;100511.96;;;15.95;39.81
28701;BME280;15877;52.344;16.790;2023-03-18T12:14:30;100510.60;;;15.97;38.62
28701;BME280;15877;52.344;16.790;2023-03-18T12:17:14;100512.85;;;16.04;39.27
28701;BME280;15877;52.344;16.790;2023-03-18T12:22:52;100504.36;;;16.01;38.70
28701;BME280;15877;52.344;16.790;2023-03-18T12:25:55;100507.86;;;15.89;38.60
28701;BME280;15877;52.344;16.790;2023-03-18T12:28:36;100509.85;;;15.86;38.57
28701;BME280;15877;52.344;16.790;2023-03-18T12:31:29;100512.80;;;15.77;39.12
28701;BME280;15877;52.344;16.790;2023-03-18T12:34:18;100513.30;;;15.80;39.25
28701;BME280;15877;52.344;16.790;2023-03-18T12:37:13;100513.38;;;15.82;38.55
28701;BME280;15877;52.344;16.790;2023-03-18T12:40:18;100515.81;;;15.99;39.28
28701;BME280;15877;52.344;16.790;2023-03-18T12:43:16;100515.58;;;16.06;39.84
28701;BME280;15877;52.344;16.790;2023-03-18T12:45:58;100503.00;;;16.03;39.31
28701;BME280;15877;52.344;16.790;2023-03-18T12:48:40;100517.58;;;16.12;39.40
28701;BME280;15877;52.344;16.790;2023-03-18T12:51:21;100516.05;;;16.03;38.66
28701;BME280;15877;52.344;16.790;2023-03-18T12:54:02;100515.40;;;15.92;38.92
28701;BME280;15877;52.344;16.790;2023-03-18T12:56:44;100504.81;;;15.80;39.36
28701;BME280;15877;52.344;16.790;2023-03-18T12:59:29;100517.45;;;15.84;39.73
28701;BME280;15877;52.344;16.790;2023-03-18T13:02:17;100515.77;;;15.77;39.62
28701;BME280;15877;52.344;16.790;2023-03-18T13:04:54;100509.98;;;15.72;39.81
28701;BME280;15877;52.344;16.790;2023-03-18T13:07:36;100508.08;;;15.71;39.98
28701;BME280;15877;52.344;16.790;2023-03-18T13:10:21;100506.53;;;15.63;40.38
28701;BME280;15877;52.344;16.790;2023-03-18T13:12:57;100502.92;;;15.62;40.49
28701;BME280;15877;52.344;16.790;2023-03-18T13:15:37;100509.39;;;15.55;40.24
28701;BME280;15877;52.344;16.790;2023-03-18T13:18:18;100509.85;;;15.48;40.33
28701;BME280;15877;52.344;16.790;2023-03-18T13:20:56;100513.41;;;15.42;39.98
28701;BME280;15877;52.344;16.790;2023-03-18T13:26:41;100511.22;;;15.37;40.67
28701;BME280;15877;52.344;16.790;2023-03-18T13:29:25;100510.69;;;15.39;41.33
28701;BME280;15877;52.344;16.790;2023-03-18T13:32:13;100508.72;;;15.34;41.56
28701;BME280;15877;52.344;16.790;2023-03-18T13:38:14;100516.76;;;15.38;41.03
28701;BME280;15877;52.344;16.790;2023-03-18T13:41:00;100516.38;;;15.40;41.47
28701;BME280;15877;52.344;16.790;2023-03-18T13:43:39;100517.89;;;15.40;41.68
28701;BME280;15877;52.344;16.790;2023-03-18T13:46:20;100518.62;;;15.42;40.92
28701;BME280;15877;52.344;16.790;2023-03-18T13:48:58;100517.52;;;15.44;41.51
28701;BME280;15877;52.344;16.790;2023-03-18T13:51:55;100518.03;;;15.39;41.26
28701;BME280;15877;52.344;16.790;2023-03-18T13:54:36;100517.65;;;15.41;40.73
28701;BME280;15877;52.344;16.790;2023-03-18T13:57:44;100517.98;;;15.42;41.08